Архив погоды в Александровск-Сахалинском

Метеограмма Александровск-Сахалинский
Среда, 24 Мая
Время местн. Темп Ветер Видим Явления Облачность нижн/средн/верх Атм. давл. Влжн Точка росы ВНГО R Сост. почвы Tg s
Напр Скр Прв ур.ст ур.м изм
10:00 +9.4° С 2 5 более 50 км - облачно 754 757 +0.7 58% +1.5° более 2.5 км - - - -
07:00 +10.4° Ю-В 3 7 20 км - облачно 753 756 +0.8 61% +3.2° 1 км 0 Влажная (без луж) +3° -
04:00 +7.9° Ю-В 3 5 20 км - облачно 753 755 -0.7 47% -2.6° 1 км - - - -
01:00 +5.1° В,Ю-В 3 4 50 км - ясно 753 756 +0.2 59% -2.3° более 2.5 км - - - -
Вторник, 23 Мая
Время местн. Темп Ветер Видим Явления Облачность нижн/средн/верх Атм. давл. Влжн Точка росы ВНГО R Сост. почвы Tg s
Напр Скр Прв ур.ст ур.м изм
22:00 +9.2° В 3 10 50 км - облачно 754 757 +0.2 46% -1.8° 1 км - - - -
19:00 +14.5° Ю,Ю-В 5 9 20 км - преимущественно облачно 753 756 -0.1 26% -4.9° - 0 - - -
16:00 +14.4° Ю-З 6 13 более 50 км - облачно с прояснениями 753 756 -0.9 42% +1.6° более 2.5 км - - - -
13:00 +14.8° Ю-З 7 11 более 50 км - переменная облачность 754 757 -0.9 36% -0.1° более 2.5 км - - - -
10:00 +13.7° Ю,Ю-З 6 10 50 км - ясно 755 758 -0.3 38% -0.5° более 2.5 км - - - -
07:00 +11.5° Ю,Ю-В 3 7 более 50 км - незначительная облачность 756 758 +0.6 39% -1.8° более 2.5 км 0 Влажная (без луж) +2° -
04:00 +7.1° Ю-В 3 6 20 км - ясно 755 758 -0.3 44% -4.4° более 2.5 км - - - -
01:00 +7.5° Ю 3 5 50 км - ясно 755 758 -0.3 43% -4.1° более 2.5 км - - - -
Понедельник, 22 Мая
Время местн. Темп Ветер Видим Явления Облачность нижн/средн/верх Атм. давл. Влжн Точка росы ВНГО R Сост. почвы Tg s
Напр Скр Прв ур.ст ур.м изм
22:00 +8° Ю 2 9 50 км небо без изменений {ливневые осадки} незначительная облачность 756 759 -0.1 41% -4.3° 1 км - - - -
19:00 +11.8° Ю-З 4 17 20 км ливневый дождь преимущественно облачно 756 758 +1.1 35% -3° 1 км 0 - - -
16:00 +13° Ю,Ю-З 9 14 50 км - облачно с прояснениями 755 757 -0.5 21% -8.5° 1 км - - - -
13:00 +12.9° Ю,Ю-З 6 13 более 50 км - переменная облачность 755 758 -1.1 27% -5.5° 1 км - - - -
10:00 +9.6° Ю,Ю-З 8 13 20 км - незначительная облачность 756 759 -0.5 40% -3.4° 1 км - - - -
07:00 +7.6° Ю,Ю-З 8 12 20 км - ясно 756 759 -0.2 45% -3.6° более 2.5 км 0 Влажная (без луж) - -
04:00 +0.4° Ю-В 3 5 20 км - ясно 757 760 -0.7 62% -6.1° более 2.5 км - - - -
01:00 Ю-В 3 6 50 км - ясно 757 760 +0.5 67% -5.4° более 2.5 км - - - -
Воскресенье, 21 Мая
Время местн. Темп Ветер Видим Явления Облачность нижн/средн/верх Атм. давл. Влжн Точка росы ВНГО R Сост. почвы Tg s
Напр Скр Прв ур.ст ур.м изм
22:00 +2.7° В,Ю-В 2 6 50 км - незначительная облачность 757 760 +0.9 59% -4.4° 1 км - - - -
19:00 +7.4° С,С-В 4 17 более 50 км - незначительная облачность 756 759 +1.7 44% -4.1° более 2.5 км 0 - - -
16:00 +10.3° С-З 1 2 50 км - переменная облачность 754 757 -0.7 43% -1.7° 1 км - - - -
13:00 +7.9° Ю-З 2 13 более 50 км - преимущественно облачно 755 758 +0.9 65% +1.8° 1 км - - - -
10:00 +10.7° Ю,Ю-З 7 13 более 50 км - облачно 754 757 -1.2 48% +0.1° 1 км - - - -
07:00 +7.1° Ю-В 3 5 50 км - преимущественно облачно 755 758 -1 60% -0.1° 1 км 0.4 Влажная (без луж) - -